sensor_id;sensor_type;location;lat;lon;timestamp;pressure;altitude;pressure_sealevel;temperature;humidity
29569;BME280;16501;51.462;14.346;2022-07-22T00:02:14;100365.47;;;20.93;86.34
29569;BME280;16501;51.462;14.346;2022-07-22T00:04:39;100341.31;;;20.80;86.65
29569;BME280;16501;51.462;14.346;2022-07-22T00:07:05;100374.13;;;20.87;86.46
29569;BME280;16501;51.462;14.346;2022-07-22T00:09:30;100361.94;;;20.86;86.05
29569;BME280;16501;51.462;14.346;2022-07-22T00:11:57;100364.72;;;20.92;86.18
29569;BME280;16501;51.462;14.346;2022-07-22T00:14:22;100369.94;;;20.88;86.06
29569;BME280;16501;51.462;14.346;2022-07-22T00:16:48;100362.81;;;20.81;86.05
29569;BME280;16501;51.462;14.346;2022-07-22T00:19:13;100363.63;;;20.63;86.80
29569;BME280;16501;51.462;14.346;2022-07-22T00:21:38;100360.34;;;20.72;86.84
29569;BME280;16501;51.462;14.346;2022-07-22T00:24:04;100366.59;;;20.70;86.58
29569;BME280;16501;51.462;14.346;2022-07-22T00:26:30;100366.59;;;20.70;86.57
29569;BME280;16501;51.462;14.346;2022-07-22T00:28:55;100358.53;;;20.56;87.00
29569;BME280;16501;51.462;14.346;2022-07-22T00:31:20;100375.84;;;20.58;87.30
29569;BME280;16501;51.462;14.346;2022-07-22T00:33:47;100367.28;;;20.58;87.57
29569;BME280;16501;51.462;14.346;2022-07-22T00:36:13;100346.44;;;20.49;87.39
29569;BME280;16501;51.462;14.346;2022-07-22T00:38:39;100341.38;;;20.42;87.63
29569;BME280;16501;51.462;14.346;2022-07-22T00:41:05;100359.38;;;20.50;87.75
29569;BME280;16501;51.462;14.346;2022-07-22T00:46:19;100382.84;;;20.57;87.42
29569;BME280;16501;51.462;14.346;2022-07-22T00:48:45;100385.88;;;20.64;87.02
29569;BME280;16501;51.462;14.346;2022-07-22T00:53:36;100353.69;;;20.31;87.50
29569;BME280;16501;51.462;14.346;2022-07-22T00:56:03;100364.47;;;20.39;87.71
29569;BME280;16501;51.462;14.346;2022-07-22T00:58:30;100362.78;;;20.30;88.02
29569;BME280;16501;51.462;14.346;2022-07-22T01:00:56;100379.22;;;20.37;87.89
29569;BME280;16501;51.462;14.346;2022-07-22T01:03:21;100386.47;;;20.38;88.22
29569;BME280;16501;51.462;14.346;2022-07-22T01:05:46;100382.09;;;20.37;87.54
29569;BME280;16501;51.462;14.346;2022-07-22T01:08:12;100349.25;;;20.17;87.83
29569;BME280;16501;51.462;14.346;2022-07-22T01:10:38;100375.31;;;20.21;87.79
29569;BME280;16501;51.462;14.346;2022-07-22T01:13:04;100354.53;;;20.07;88.15
29569;BME280;16501;51.462;14.346;2022-07-22T01:15:29;100341.78;;;19.95;87.75
29569;BME280;16501;51.462;14.346;2022-07-22T01:17:55;100384.84;;;20.24;88.32
29569;BME280;16501;51.462;14.346;2022-07-22T01:20:21;100362.41;;;20.01;88.61
29569;BME280;16501;51.462;14.346;2022-07-22T01:22:48;100366.38;;;20.11;88.81
29569;BME280;16501;51.462;14.346;2022-07-22T01:25:13;100363.47;;;19.98;88.92
29569;BME280;16501;51.462;14.346;2022-07-22T01:27:39;100363.09;;;20.07;88.83
29569;BME280;16501;51.462;14.346;2022-07-22T01:30:05;100366.00;;;20.02;88.92
29569;BME280;16501;51.462;14.346;2022-07-22T01:32:30;100382.31;;;20.01;89.79
29569;BME280;16501;51.462;14.346;2022-07-22T01:34:57;100377.78;;;19.92;88.76
29569;BME280;16501;51.462;14.346;2022-07-22T01:37:23;100374.63;;;19.96;87.76
29569;BME280;16501;51.462;14.346;2022-07-22T01:39:50;100357.44;;;19.83;88.04
29569;BME280;16501;51.462;14.346;2022-07-22T01:42:15;100379.59;;;19.90;88.29
29569;BME280;16501;51.462;14.346;2022-07-22T01:44:42;100385.00;;;19.93;88.53
29569;BME280;16501;51.462;14.346;2022-07-22T01:47:08;100384.56;;;19.84;89.34
29569;BME280;16501;51.462;14.346;2022-07-22T01:49:34;100378.50;;;19.74;88.39
29569;BME280;16501;51.462;14.346;2022-07-22T01:52:00;100389.16;;;19.92;87.65
29569;BME280;16501;51.462;14.346;2022-07-22T01:54:27;100349.16;;;19.60;87.71
29569;BME280;16501;51.462;14.346;2022-07-22T01:56:52;100394.38;;;19.88;87.96
29569;BME280;16501;51.462;14.346;2022-07-22T01:59:19;100396.22;;;19.86;87.98
29569;BME280;16501;51.462;14.346;2022-07-22T02:01:44;100397.72;;;19.62;88.70
29569;BME280;16501;51.462;14.346;2022-07-22T02:04:10;100383.94;;;19.72;88.44
29569;BME280;16501;51.462;14.346;2022-07-22T02:06:35;100377.00;;;19.67;88.45
29569;BME280;16501;51.462;14.346;2022-07-22T02:09:01;100350.28;;;19.51;88.50
29569;BME280;16501;51.462;14.346;2022-07-22T02:11:26;100395.56;;;19.49;89.33
29569;BME280;16501;51.462;14.346;2022-07-22T02:13:53;100370.50;;;19.48;88.47
29569;BME280;16501;51.462;14.346;2022-07-22T02:16:19;100404.38;;;19.70;88.11
29569;BME280;16501;51.462;14.346;2022-07-22T02:18:44;100380.53;;;19.49;88.18
29569;BME280;16501;51.462;14.346;2022-07-22T02:21:09;100361.19;;;19.47;87.80
29569;BME280;16501;51.462;14.346;2022-07-22T02:23:34;100371.03;;;19.46;87.92
29569;BME280;16501;51.462;14.346;2022-07-22T02:26:01;100366.69;;;19.39;87.39
29569;BME280;16501;51.462;14.346;2022-07-22T02:28:28;100395.25;;;19.53;87.51
29569;BME280;16501;51.462;14.346;2022-07-22T02:30:53;100393.25;;;19.48;87.60
29569;BME280;16501;51.462;14.346;2022-07-22T02:33:19;100379.38;;;19.38;87.44
29569;BME280;16501;51.462;14.346;2022-07-22T02:35:44;100391.75;;;19.41;87.78
29569;BME280;16501;51.462;14.346;2022-07-22T02:38:10;100393.31;;;19.42;87.80
29569;BME280;16501;51.462;14.346;2022-07-22T02:40:37;100408.88;;;19.35;88.52
29569;BME280;16501;51.462;14.346;2022-07-22T02:43:02;100400.94;;;19.28;88.72
29569;BME280;16501;51.462;14.346;2022-07-22T02:45:31;100411.13;;;19.43;88.73
29569;BME280;16501;51.462;14.346;2022-07-22T02:47:56;100420.47;;;19.37;88.69
29569;BME280;16501;51.462;14.346;2022-07-22T02:50:22;100397.56;;;19.30;88.39
29569;BME280;16501;51.462;14.346;2022-07-22T02:52:48;100410.47;;;19.31;87.93
29569;BME280;16501;51.462;14.346;2022-07-22T02:55:14;100414.78;;;19.37;88.31
29569;BME280;16501;51.462;14.346;2022-07-22T02:57:39;100401.22;;;19.25;88.03
29569;BME280;16501;51.462;14.346;2022-07-22T03:00:06;100421.81;;;19.31;88.11
29569;BME280;16501;51.462;14.346;2022-07-22T03:02:33;100419.03;;;19.25;88.14
29569;BME280;16501;51.462;14.346;2022-07-22T03:04:59;100414.13;;;19.26;88.32
29569;BME280;16501;51.462;14.346;2022-07-22T03:07:24;100402.56;;;19.18;88.25
29569;BME280;16501;51.462;14.346;2022-07-22T03:09:49;100414.94;;;19.20;88.07
29569;BME280;16501;51.462;14.346;2022-07-22T03:12:14;100427.56;;;19.25;88.02
29569;BME280;16501;51.462;14.346;2022-07-22T03:14:39;100404.44;;;19.10;88.30
29569;BME280;16501;51.462;14.346;2022-07-22T03:17:05;100409.13;;;19.07;88.49
29569;BME280;16501;51.462;14.346;2022-07-22T03:19:30;100418.88;;;19.12;89.10
29569;BME280;16501;51.462;14.346;2022-07-22T03:21:55;100433.34;;;19.14;88.89
29569;BME280;16501;51.462;14.346;2022-07-22T03:24:21;100422.78;;;19.09;88.70
29569;BME280;16501;51.462;14.346;2022-07-22T03:26:46;100416.91;;;19.01;88.59
29569;BME280;16501;51.462;14.346;2022-07-22T03:29:11;100401.22;;;18.94;88.83
29569;BME280;16501;51.462;14.346;2022-07-22T03:31:36;100420.81;;;18.98;88.95
29569;BME280;16501;51.462;14.346;2022-07-22T03:34:02;100417.28;;;18.86;89.27
29569;BME280;16501;51.462;14.346;2022-07-22T03:36:28;100430.44;;;18.89;89.93
29569;BME280;16501;51.462;14.346;2022-07-22T03:38:57;100440.41;;;19.01;89.47
29569;BME280;16501;51.462;14.346;2022-07-22T03:41:22;100443.53;;;18.98;88.95
29569;BME280;16501;51.462;14.346;2022-07-22T03:43:47;100439.19;;;18.91;89.31
29569;BME280;16501;51.462;14.346;2022-07-22T03:46:13;100452.06;;;18.98;89.23
29569;BME280;16501;51.462;14.346;2022-07-22T03:48:38;100435.41;;;18.83;89.29
29569;BME280;16501;51.462;14.346;2022-07-22T03:51:04;100432.78;;;18.85;88.99
29569;BME280;16501;51.462;14.346;2022-07-22T03:53:29;100438.47;;;18.85;88.92
29569;BME280;16501;51.462;14.346;2022-07-22T03:55:54;100453.91;;;18.95;88.92
29569;BME280;16501;51.462;14.346;2022-07-22T03:58:20;100440.00;;;18.86;89.41
29569;BME280;16501;51.462;14.346;2022-07-22T04:00:45;100441.78;;;18.89;89.41
29569;BME280;16501;51.462;14.346;2022-07-22T04:03:10;100449.56;;;18.89;89.50
29569;BME280;16501;51.462;14.346;2022-07-22T04:05:35;100435.91;;;18.81;90.32
29569;BME280;16501;51.462;14.346;2022-07-22T04:08:01;100441.56;;;18.87;90.64
29569;BME280;16501;51.462;14.346;2022-07-22T04:10:26;100456.47;;;18.99;90.86
29569;BME280;16501;51.462;14.346;2022-07-22T04:12:51;100454.84;;;19.03;90.85
29569;BME280;16501;51.462;14.346;2022-07-22T04:15:16;100446.09;;;19.01;91.76
29569;BME280;16501;51.462;14.346;2022-07-22T04:17:42;100441.97;;;19.02;91.33
29569;BME280;16501;51.462;14.346;2022-07-22T04:20:07;100442.16;;;19.10;91.42
29569;BME280;16501;51.462;14.346;2022-07-22T04:22:33;100441.09;;;19.13;91.82
29569;BME280;16501;51.462;14.346;2022-07-22T04:24:58;100438.25;;;19.13;92.18
29569;BME280;16501;51.462;14.346;2022-07-22T04:27:24;100436.38;;;19.21;91.77
29569;BME280;16501;51.462;14.346;2022-07-22T04:29:49;100448.19;;;19.31;92.32
29569;BME280;16501;51.462;14.346;2022-07-22T04:32:14;100450.50;;;19.33;91.92
29569;BME280;16501;51.462;14.346;2022-07-22T04:34:40;100441.66;;;19.36;93.45
29569;BME280;16501;51.462;14.346;2022-07-22T04:37:06;100449.16;;;19.39;94.11
29569;BME280;16501;51.462;14.346;2022-07-22T04:39:32;100440.72;;;19.28;93.38
29569;BME280;16501;51.462;14.346;2022-07-22T04:41:57;100447.66;;;19.33;93.12
29569;BME280;16501;51.462;14.346;2022-07-22T04:44:25;100444.56;;;19.31;92.88
29569;BME280;16501;51.462;14.346;2022-07-22T04:46:51;100445.63;;;19.28;92.78
29569;BME280;16501;51.462;14.346;2022-07-22T04:49:16;100453.03;;;19.36;92.53
29569;BME280;16501;51.462;14.346;2022-07-22T04:51:41;100445.78;;;19.41;92.53
29569;BME280;16501;51.462;14.346;2022-07-22T04:54:06;100415.97;;;19.23;92.72
29569;BME280;16501;51.462;14.346;2022-07-22T04:56:32;100434.25;;;19.28;93.12
29569;BME280;16501;51.462;14.346;2022-07-22T04:58:57;100422.19;;;19.21;92.55
29569;BME280;16501;51.462;14.346;2022-07-22T05:01:22;100456.03;;;19.50;92.43
29569;BME280;16501;51.462;14.346;2022-07-22T05:03:48;100459.69;;;19.45;92.60
29569;BME280;16501;51.462;14.346;2022-07-22T05:06:13;100453.84;;;19.37;92.46
29569;BME280;16501;51.462;14.346;2022-07-22T05:08:39;100457.09;;;19.47;92.80
29569;BME280;16501;51.462;14.346;2022-07-22T05:11:04;100448.09;;;19.43;92.13
29569;BME280;16501;51.462;14.346;2022-07-22T05:13:29;100452.47;;;19.44;91.71
29569;BME280;16501;51.462;14.346;2022-07-22T05:15:54;100441.44;;;19.34;92.96
29569;BME280;16501;51.462;14.346;2022-07-22T05:18:20;100453.78;;;19.43;92.84
29569;BME280;16501;51.462;14.346;2022-07-22T05:20:45;100452.47;;;19.44;93.12
29569;BME280;16501;51.462;14.346;2022-07-22T05:23:10;100456.25;;;19.52;92.77
29569;BME280;16501;51.462;14.346;2022-07-22T05:25:35;100453.78;;;19.67;92.72
29569;BME280;16501;51.462;14.346;2022-07-22T05:28:01;100457.41;;;19.68;91.76
29569;BME280;16501;51.462;14.346;2022-07-22T05:30:26;100458.44;;;19.70;90.50
29569;BME280;16501;51.462;14.346;2022-07-22T05:32:52;100454.53;;;19.73;90.30
29569;BME280;16501;51.462;14.346;2022-07-22T05:35:17;100449.50;;;19.85;90.61
29569;BME280;16501;51.462;14.346;2022-07-22T05:37:42;100453.81;;;19.92;89.69
29569;BME280;16501;51.462;14.346;2022-07-22T05:40:08;100459.41;;;20.03;89.83
29569;BME280;16501;51.462;14.346;2022-07-22T05:42:33;100445.16;;;20.03;88.76
29569;BME280;16501;51.462;14.346;2022-07-22T05:44:59;100469.25;;;20.21;88.00
29569;BME280;16501;51.462;14.346;2022-07-22T05:47:24;100465.59;;;20.26;88.93
29569;BME280;16501;51.462;14.346;2022-07-22T05:49:49;100452.09;;;20.27;87.03
29569;BME280;16501;51.462;14.346;2022-07-22T05:52:14;100460.81;;;20.34;86.25
29569;BME280;16501;51.462;14.346;2022-07-22T05:54:40;100469.22;;;20.46;85.49
29569;BME280;16501;51.462;14.346;2022-07-22T05:57:05;100447.34;;;20.35;86.42
29569;BME280;16501;51.462;14.346;2022-07-22T05:59:34;100452.19;;;20.40;86.55
29569;BME280;16501;51.462;14.346;2022-07-22T06:02:00;100462.00;;;20.64;86.45
29569;BME280;16501;51.462;14.346;2022-07-22T06:04:25;100468.16;;;20.68;84.98
29569;BME280;16501;51.462;14.346;2022-07-22T06:06:50;100447.19;;;20.46;84.40
29569;BME280;16501;51.462;14.346;2022-07-22T06:09:15;100458.66;;;20.60;84.36
29569;BME280;16501;51.462;14.346;2022-07-22T06:11:41;100467.31;;;20.73;84.23
29569;BME280;16501;51.462;14.346;2022-07-22T06:14:06;100473.53;;;20.90;84.50
29569;BME280;16501;51.462;14.346;2022-07-22T06:16:31;100451.72;;;20.93;84.62
29569;BME280;16501;51.462;14.346;2022-07-22T06:18:57;100452.09;;;21.03;83.55
29569;BME280;16501;51.462;14.346;2022-07-22T06:21:23;100455.63;;;21.09;83.43
29569;BME280;16501;51.462;14.346;2022-07-22T06:23:48;100447.44;;;21.19;82.54
29569;BME280;16501;51.462;14.346;2022-07-22T06:26:13;100473.28;;;21.40;82.70
29569;BME280;16501;51.462;14.346;2022-07-22T06:28:39;100459.22;;;21.42;81.18
29569;BME280;16501;51.462;14.346;2022-07-22T06:31:04;100459.19;;;21.48;80.38
29569;BME280;16501;51.462;14.346;2022-07-22T06:33:29;100477.63;;;21.60;80.89
29569;BME280;16501;51.462;14.346;2022-07-22T06:35:55;100461.72;;;21.64;80.21
29569;BME280;16501;51.462;14.346;2022-07-22T06:38:20;100467.19;;;21.62;77.99
29569;BME280;16501;51.462;14.346;2022-07-22T06:40:45;100452.06;;;21.68;79.30
29569;BME280;16501;51.462;14.346;2022-07-22T06:43:10;100464.81;;;21.80;78.42
29569;BME280;16501;51.462;14.346;2022-07-22T06:45:36;100467.78;;;21.88;76.72
29569;BME280;16501;51.462;14.346;2022-07-22T06:48:01;100463.47;;;21.94;77.00
29569;BME280;16501;51.462;14.346;2022-07-22T06:50:26;100449.00;;;21.92;76.41
29569;BME280;16501;51.462;14.346;2022-07-22T06:52:52;100455.81;;;22.02;76.32
29569;BME280;16501;51.462;14.346;2022-07-22T06:55:17;100450.44;;;22.12;78.15
29569;BME280;16501;51.462;14.346;2022-07-22T06:57:43;100448.75;;;22.17;75.83
29569;BME280;16501;51.462;14.346;2022-07-22T07:00:09;100452.28;;;22.23;75.31
29569;BME280;16501;51.462;14.346;2022-07-22T07:02:35;100438.47;;;22.14;73.43
29569;BME280;16501;51.462;14.346;2022-07-22T07:05:00;100467.22;;;22.29;73.65
29569;BME280;16501;51.462;14.346;2022-07-22T07:07:26;100459.31;;;22.35;74.60
29569;BME280;16501;51.462;14.346;2022-07-22T07:09:53;100472.59;;;22.46;73.20
29569;BME280;16501;51.462;14.346;2022-07-22T07:12:19;100442.72;;;22.34;73.90
29569;BME280;16501;51.462;14.346;2022-07-22T07:14:44;100473.19;;;22.66;73.64
29569;BME280;16501;51.462;14.346;2022-07-22T07:17:09;100458.91;;;22.66;72.58
29569;BME280;16501;51.462;14.346;2022-07-22T07:19:35;100448.47;;;22.68;74.64
29569;BME280;16501;51.462;14.346;2022-07-22T07:22:00;100450.56;;;22.68;72.93
29569;BME280;16501;51.462;14.346;2022-07-22T07:24:25;100461.13;;;22.73;70.75
29569;BME280;16501;51.462;14.346;2022-07-22T07:26:50;100464.25;;;22.83;70.81
29569;BME280;16501;51.462;14.346;2022-07-22T07:29:16;100462.38;;;22.85;71.03
29569;BME280;16501;51.462;14.346;2022-07-22T07:31:41;100470.31;;;23.13;71.99
29569;BME280;16501;51.462;14.346;2022-07-22T07:34:06;100466.06;;;23.28;69.85
29569;BME280;16501;51.462;14.346;2022-07-22T07:36:31;100463.84;;;23.34;69.36
29569;BME280;16501;51.462;14.346;2022-07-22T07:38:57;100447.63;;;23.37;69.02
29569;BME280;16501;51.462;14.346;2022-07-22T07:41:22;100465.09;;;23.46;67.62
29569;BME280;16501;51.462;14.346;2022-07-22T07:43:47;100466.41;;;23.45;68.12
29569;BME280;16501;51.462;14.346;2022-07-22T07:46:13;100463.34;;;23.43;67.86
29569;BME280;16501;51.462;14.346;2022-07-22T07:48:38;100449.22;;;23.45;68.58
29569;BME280;16501;51.462;14.346;2022-07-22T07:51:04;100463.34;;;23.72;67.70
29569;BME280;16501;51.462;14.346;2022-07-22T07:53:30;100458.56;;;23.67;65.78
29569;BME280;16501;51.462;14.346;2022-07-22T07:55:55;100450.06;;;23.53;65.75
29569;BME280;16501;51.462;14.346;2022-07-22T07:58:20;100463.34;;;23.72;66.21
29569;BME280;16501;51.462;14.346;2022-07-22T08:00:46;100455.13;;;23.68;64.83
29569;BME280;16501;51.462;14.346;2022-07-22T08:03:11;100469.31;;;23.74;65.29
29569;BME280;16501;51.462;14.346;2022-07-22T08:05:37;100468.63;;;23.81;66.46
29569;BME280;16501;51.462;14.346;2022-07-22T08:08:04;100463.00;;;23.97;65.38
29569;BME280;16501;51.462;14.346;2022-07-22T08:10:30;100467.63;;;24.07;64.09
29569;BME280;16501;51.462;14.346;2022-07-22T08:12:55;100461.63;;;23.98;64.24
29569;BME280;16501;51.462;14.346;2022-07-22T08:15:23;100449.66;;;23.78;65.41
29569;BME280;16501;51.462;14.346;2022-07-22T08:17:48;100451.75;;;24.06;64.75
29569;BME280;16501;51.462;14.346;2022-07-22T08:20:13;100463.69;;;24.26;63.98
29569;BME280;16501;51.462;14.346;2022-07-22T08:22:39;100473.75;;;24.12;63.97
29569;BME280;16501;51.462;14.346;2022-07-22T08:25:04;100451.84;;;23.85;63.80
29569;BME280;16501;51.462;14.346;2022-07-22T08:27:30;100472.66;;;24.22;62.57
29569;BME280;16501;51.462;14.346;2022-07-22T08:29:55;100444.66;;;24.36;61.69
29569;BME280;16501;51.462;14.346;2022-07-22T08:32:21;100472.38;;;24.41;61.67
29569;BME280;16501;51.462;14.346;2022-07-22T08:34:46;100479.56;;;24.27;62.14
29569;BME280;16501;51.462;14.346;2022-07-22T08:37:12;100471.91;;;24.22;62.16
29569;BME280;16501;51.462;14.346;2022-07-22T08:39:37;100470.47;;;24.44;62.30
29569;BME280;16501;51.462;14.346;2022-07-22T08:42:02;100447.84;;;24.69;60.92
29569;BME280;16501;51.462;14.346;2022-07-22T08:44:31;100463.53;;;24.76;61.37
29569;BME280;16501;51.462;14.346;2022-07-22T08:46:58;100463.72;;;24.78;61.19
29569;BME280;16501;51.462;14.346;2022-07-22T08:49:24;100453.75;;;24.56;60.54
29569;BME280;16501;51.462;14.346;2022-07-22T08:51:49;100465.22;;;24.56;60.57
29569;BME280;16501;51.462;14.346;2022-07-22T08:54:15;100460.75;;;24.47;60.85
29569;BME280;16501;51.462;14.346;2022-07-22T08:56:40;100465.88;;;24.41;60.83
29569;BME280;16501;51.462;14.346;2022-07-22T08:59:07;100457.66;;;24.45;59.81
29569;BME280;16501;51.462;14.346;2022-07-22T09:01:32;100456.09;;;24.36;60.40
29569;BME280;16501;51.462;14.346;2022-07-22T09:03:58;100458.78;;;24.34;59.91
29569;BME280;16501;51.462;14.346;2022-07-22T09:06:25;100472.28;;;24.26;60.13
29569;BME280;16501;51.462;14.346;2022-07-22T09:08:59;100459.88;;;24.23;60.40
29569;BME280;16501;51.462;14.346;2022-07-22T09:11:27;100473.00;;;24.11;60.75
29569;BME280;16501;51.462;14.346;2022-07-22T09:13:53;100463.22;;;24.43;59.44
29569;BME280;16501;51.462;14.346;2022-07-22T09:19:03;100458.81;;;25.01;58.95
29569;BME280;16501;51.462;14.346;2022-07-22T09:21:34;100466.28;;;24.97;58.40
29569;BME280;16501;51.462;14.346;2022-07-22T09:24:00;100458.81;;;25.01;57.49
29569;BME280;16501;51.462;14.346;2022-07-22T09:26:35;100449.69;;;25.26;57.26
29569;BME280;16501;51.462;14.346;2022-07-22T09:29:00;100448.19;;;25.48;57.26
29569;BME280;16501;51.462;14.346;2022-07-22T09:31:31;100469.94;;;25.90;54.70
29569;BME280;16501;51.462;14.346;2022-07-22T09:33:58;100462.66;;;26.04;55.08
29569;BME280;16501;51.462;14.346;2022-07-22T09:36:24;100463.75;;;26.24;54.54
29569;BME280;16501;51.462;14.346;2022-07-22T09:38:49;100467.63;;;26.11;53.97
29569;BME280;16501;51.462;14.346;2022-07-22T09:41:16;100465.69;;;26.22;54.00
29569;BME280;16501;51.462;14.346;2022-07-22T09:43:41;100454.53;;;26.26;52.23
29569;BME280;16501;51.462;14.346;2022-07-22T09:46:07;100456.13;;;26.11;52.51
29569;BME280;16501;51.462;14.346;2022-07-22T09:48:33;100443.16;;;25.72;52.40
29569;BME280;16501;51.462;14.346;2022-07-22T09:50:59;100467.47;;;25.63;53.75
29569;BME280;16501;51.462;14.346;2022-07-22T09:53:26;100456.59;;;25.54;54.62
29569;BME280;16501;51.462;14.346;2022-07-22T09:55:58;100464.59;;;25.94;53.82
29569;BME280;16501;51.462;14.346;2022-07-22T09:58:25;100462.97;;;26.24;53.86
29569;BME280;16501;51.462;14.346;2022-07-22T10:00:59;100458.91;;;26.34;52.76
29569;BME280;16501;51.462;14.346;2022-07-22T10:03:30;100438.13;;;26.11;52.42
29569;BME280;16501;51.462;14.346;2022-07-22T10:05:57;100455.00;;;25.99;51.50
29569;BME280;16501;51.462;14.346;2022-07-22T10:08:24;100470.28;;;26.25;51.49
29569;BME280;16501;51.462;14.346;2022-07-22T10:10:50;100439.75;;;26.37;49.31
29569;BME280;16501;51.462;14.346;2022-07-22T10:13:17;100466.34;;;26.45;49.70
29569;BME280;16501;51.462;14.346;2022-07-22T10:15:42;100455.13;;;26.24;50.08
29569;BME280;16501;51.462;14.346;2022-07-22T10:18:13;100471.44;;;26.14;49.86
29569;BME280;16501;51.462;14.346;2022-07-22T10:20:39;100441.19;;;25.90;50.68
29569;BME280;16501;51.462;14.346;2022-07-22T10:23:06;100445.25;;;25.94;50.63
29569;BME280;16501;51.462;14.346;2022-07-22T10:25:53;100456.75;;;25.94;49.32
29569;BME280;16501;51.462;14.346;2022-07-22T10:30:52;100460.56;;;25.82;49.09
29569;BME280;16501;51.462;14.346;2022-07-22T10:33:19;100461.53;;;25.76;50.14
29569;BME280;16501;51.462;14.346;2022-07-22T10:35:59;100446.22;;;25.66;49.49
29569;BME280;16501;51.462;14.346;2022-07-22T10:38:26;100456.19;;;25.73;50.76
29569;BME280;16501;51.462;14.346;2022-07-22T10:41:00;100470.91;;;25.85;50.75
29569;BME280;16501;51.462;14.346;2022-07-22T10:43:28;100474.94;;;25.82;51.62
29569;BME280;16501;51.462;14.346;2022-07-22T10:45:58;100462.69;;;25.73;53.01
29569;BME280;16501;51.462;14.346;2022-07-22T10:51:18;100455.06;;;25.61;52.98
29569;BME280;16501;51.462;14.346;2022-07-22T10:53:57;100469.97;;;25.74;54.19
29569;BME280;16501;51.462;14.346;2022-07-22T10:56:33;100464.03;;;25.65;53.46
29569;BME280;16501;51.462;14.346;2022-07-22T10:59:15;100467.09;;;25.74;53.88
29569;BME280;16501;51.462;14.346;2022-07-22T11:01:47;100475.50;;;25.80;53.87
29569;BME280;16501;51.462;14.346;2022-07-22T11:04:20;100472.81;;;25.98;53.72
29569;BME280;16501;51.462;14.346;2022-07-22T11:06:48;100471.81;;;26.10;52.71
29569;BME280;16501;51.462;14.346;2022-07-22T11:09:15;100455.50;;;26.21;53.63
29569;BME280;16501;51.462;14.346;2022-07-22T11:11:46;100476.31;;;26.44;52.29
29569;BME280;16501;51.462;14.346;2022-07-22T11:16:42;100472.72;;;26.36;51.04
29569;BME280;16501;51.462;14.346;2022-07-22T11:19:08;100459.63;;;26.02;51.10
29569;BME280;16501;51.462;14.346;2022-07-22T11:21:34;100468.78;;;26.08;51.03
29569;BME280;16501;51.462;14.346;2022-07-22T11:24:02;100461.09;;;26.19;51.35
29569;BME280;16501;51.462;14.346;2022-07-22T11:26:42;100459.06;;;26.44;51.48
29569;BME280;16501;51.462;14.346;2022-07-22T11:29:08;100461.72;;;26.50;49.87
29569;BME280;16501;51.462;14.346;2022-07-22T11:31:35;100447.19;;;26.48;49.87
29569;BME280;16501;51.462;14.346;2022-07-22T11:34:08;100445.22;;;26.50;49.15
29569;BME280;16501;51.462;14.346;2022-07-22T11:36:35;100459.22;;;26.62;48.26
29569;BME280;16501;51.462;14.346;2022-07-22T11:39:02;100448.66;;;26.57;48.37
29569;BME280;16501;51.462;14.346;2022-07-22T11:41:29;100438.38;;;26.46;48.01
29569;BME280;16501;51.462;14.346;2022-07-22T11:43:55;100445.97;;;26.59;47.30
29569;BME280;16501;51.462;14.346;2022-07-22T11:46:20;100438.88;;;26.60;47.73
29569;BME280;16501;51.462;14.346;2022-07-22T11:48:45;100435.50;;;26.86;47.40
29569;BME280;16501;51.462;14.346;2022-07-22T11:51:12;100438.38;;;27.12;46.13
29569;BME280;16501;51.462;14.346;2022-07-22T11:53:40;100425.03;;;27.24;46.08
29569;BME280;16501;51.462;14.346;2022-07-22T11:56:07;100433.69;;;27.49;46.10
29569;BME280;16501;51.462;14.346;2022-07-22T11:59:11;100425.81;;;27.67;43.84
29569;BME280;16501;51.462;14.346;2022-07-22T12:01:31;100410.09;;;27.86;44.91
29569;BME280;16501;51.462;14.346;2022-07-22T12:04:05;100417.56;;;27.89;43.65
29569;BME280;16501;51.462;14.346;2022-07-22T12:06:32;100401.75;;;27.55;44.80
29569;BME280;16501;51.462;14.346;2022-07-22T12:09:09;100402.94;;;27.69;45.28
29569;BME280;16501;51.462;14.346;2022-07-22T12:11:37;100406.59;;;27.52;46.18
29569;BME280;16501;51.462;14.346;2022-07-22T12:14:10;100413.84;;;27.36;46.54
29569;BME280;16501;51.462;14.346;2022-07-22T12:16:37;100407.75;;;27.24;46.77
29569;BME280;16501;51.462;14.346;2022-07-22T12:19:08;100409.97;;;27.16;46.82
29569;BME280;16501;51.462;14.346;2022-07-22T12:21:36;100399.53;;;27.20;46.92
29569;BME280;16501;51.462;14.346;2022-07-22T12:24:07;100408.53;;;27.50;46.96
29569;BME280;16501;51.462;14.346;2022-07-22T12:26:51;100396.69;;;27.80;45.25
29569;BME280;16501;51.462;14.346;2022-07-22T12:29:25;100410.03;;;27.93;45.48
29569;BME280;16501;51.462;14.346;2022-07-22T12:31:57;100406.47;;;28.02;44.56
29569;BME280;16501;51.462;14.346;2022-07-22T12:34:29;100401.03;;;27.89;44.88
29569;BME280;16501;51.462;14.346;2022-07-22T12:36:55;100407.09;;;27.58;44.66
29569;BME280;16501;51.462;14.346;2022-07-22T12:39:20;100399.16;;;27.67;43.76
29569;BME280;16501;51.462;14.346;2022-07-22T12:41:50;100386.44;;;27.70;43.21
29569;BME280;16501;51.462;14.346;2022-07-22T12:44:21;100387.31;;;27.80;44.63
29569;BME280;16501;51.462;14.346;2022-07-22T12:46:52;100385.78;;;27.96;44.40
29569;BME280;16501;51.462;14.346;2022-07-22T12:49:19;100386.75;;;28.26;44.32
29569;BME280;16501;51.462;14.346;2022-07-22T12:52:05;100398.69;;;28.40;43.12
29569;BME280;16501;51.462;14.346;2022-07-22T12:54:30;100388.75;;;28.06;44.78